sensor_id;sensor_type;location;lat;lon;timestamp;pressure;altitude;pressure_sealevel;temperature;humidity
18201;BME280;9226;47.858;9.594;2023-01-29T00:01:24;96047.06;;;0.63;77.00
18201;BME280;9226;47.858;9.594;2023-01-29T00:03:50;96056.66;;;0.63;76.59
18201;BME280;9226;47.858;9.594;2023-01-29T00:06:16;96054.47;;;0.49;76.67
18201;BME280;9226;47.858;9.594;2023-01-29T00:08:42;96047.31;;;0.29;75.54
18201;BME280;9226;47.858;9.594;2023-01-29T00:11:08;96045.31;;;0.37;76.19
18201;BME280;9226;47.858;9.594;2023-01-29T00:13:34;96043.03;;;0.26;76.22
18201;BME280;9226;47.858;9.594;2023-01-29T00:16:00;96044.13;;;0.19;76.32
18201;BME280;9226;47.858;9.594;2023-01-29T00:18:27;96055.13;;;0.29;76.46
18201;BME280;9226;47.858;9.594;2023-01-29T00:20:53;96058.03;;;0.20;76.22
18201;BME280;9226;47.858;9.594;2023-01-29T00:23:19;96054.59;;;0.17;76.16
18201;BME280;9226;47.858;9.594;2023-01-29T00:25:44;96059.91;;;0.14;76.53
18201;BME280;9226;47.858;9.594;2023-01-29T00:28:11;96052.19;;;0.11;76.00
18201;BME280;9226;47.858;9.594;2023-01-29T00:30:37;96051.22;;;0.14;76.21
18201;BME280;9226;47.858;9.594;2023-01-29T00:33:03;96055.53;;;0.15;76.08
18201;BME280;9226;47.858;9.594;2023-01-29T00:35:29;96040.44;;;-0.04;75.15
18201;BME280;9226;47.858;9.594;2023-01-29T00:37:56;96032.56;;;-0.02;76.06
18201;BME280;9226;47.858;9.594;2023-01-29T00:40:22;96029.50;;;0.13;75.46
18201;BME280;9226;47.858;9.594;2023-01-29T00:42:48;96033.81;;;0.14;74.88
18201;BME280;9226;47.858;9.594;2023-01-29T00:45:32;96041.78;;;0.10;75.05
18201;BME280;9226;47.858;9.594;2023-01-29T00:47:58;96047.25;;;0.30;74.78
18201;BME280;9226;47.858;9.594;2023-01-29T00:50:24;96050.81;;;0.28;74.53
18201;BME280;9226;47.858;9.594;2023-01-29T00:52:49;96057.34;;;0.13;74.79
18201;BME280;9226;47.858;9.594;2023-01-29T00:55:17;96056.22;;;0.22;74.64
18201;BME280;9226;47.858;9.594;2023-01-29T00:57:42;96063.75;;;0.31;74.82
18201;BME280;9226;47.858;9.594;2023-01-29T01:00:11;96061.34;;;0.25;74.61
18201;BME280;9226;47.858;9.594;2023-01-29T01:02:37;96062.09;;;0.28;74.60
18201;BME280;9226;47.858;9.594;2023-01-29T01:05:21;96056.72;;;0.33;74.95
18201;BME280;9226;47.858;9.594;2023-01-29T01:07:48;96061.06;;;0.34;74.82
18201;BME280;9226;47.858;9.594;2023-01-29T01:10:17;96069.97;;;0.27;74.98
18201;BME280;9226;47.858;9.594;2023-01-29T01:15:37;96068.59;;;0.43;74.75
18201;BME280;9226;47.858;9.594;2023-01-29T01:18:03;96071.22;;;0.43;74.88
18201;BME280;9226;47.858;9.594;2023-01-29T01:20:30;96068.03;;;0.33;75.53
18201;BME280;9226;47.858;9.594;2023-01-29T01:22:56;96064.56;;;0.33;75.57
18201;BME280;9226;47.858;9.594;2023-01-29T01:25:23;96069.91;;;0.57;75.25
18201;BME280;9226;47.858;9.594;2023-01-29T01:27:56;96075.38;;;0.49;75.69
18201;BME280;9226;47.858;9.594;2023-01-29T01:30:23;96077.38;;;0.41;76.38
18201;BME280;9226;47.858;9.594;2023-01-29T01:32:48;96078.44;;;0.35;76.40
18201;BME280;9226;47.858;9.594;2023-01-29T01:35:14;96069.03;;;0.29;76.80
18201;BME280;9226;47.858;9.594;2023-01-29T01:37:40;96076.25;;;0.49;76.42
18201;BME280;9226;47.858;9.594;2023-01-29T01:40:12;96081.19;;;0.59;76.06
18201;BME280;9226;47.858;9.594;2023-01-29T01:42:52;96078.25;;;0.68;76.06
18201;BME280;9226;47.858;9.594;2023-01-29T01:45:28;96079.03;;;0.71;75.50
18201;BME280;9226;47.858;9.594;2023-01-29T01:48:23;96071.94;;;0.75;75.17
18201;BME280;9226;47.858;9.594;2023-01-29T01:51:00;96070.31;;;0.71;75.19
18201;BME280;9226;47.858;9.594;2023-01-29T01:55:59;96076.16;;;0.52;75.94
18201;BME280;9226;47.858;9.594;2023-01-29T01:58:31;96076.94;;;0.54;76.57
18201;BME280;9226;47.858;9.594;2023-01-29T02:00:57;96077.47;;;0.66;76.23
18201;BME280;9226;47.858;9.594;2023-01-29T02:03:23;96076.47;;;0.70;76.21
18201;BME280;9226;47.858;9.594;2023-01-29T02:06:10;96074.34;;;0.54;76.94
18201;BME280;9226;47.858;9.594;2023-01-29T02:11:43;96069.50;;;0.42;77.87
18201;BME280;9226;47.858;9.594;2023-01-29T02:14:09;96064.00;;;0.51;77.59
18201;BME280;9226;47.858;9.594;2023-01-29T02:16:35;96068.28;;;0.54;77.50
18201;BME280;9226;47.858;9.594;2023-01-29T02:19:03;96072.91;;;0.44;77.93
18201;BME280;9226;47.858;9.594;2023-01-29T02:21:51;96072.75;;;0.49;77.46
18201;BME280;9226;47.858;9.594;2023-01-29T02:27:18;96075.78;;;0.37;78.21
18201;BME280;9226;47.858;9.594;2023-01-29T02:30:58;96062.97;;;0.29;78.43
18201;BME280;9226;47.858;9.594;2023-01-29T02:35:51;96061.88;;;0.63;77.72
18201;BME280;9226;47.858;9.594;2023-01-29T02:38:28;96059.28;;;0.63;77.09
18201;BME280;9226;47.858;9.594;2023-01-29T02:41:06;96066.09;;;0.40;77.76
18201;BME280;9226;47.858;9.594;2023-01-29T02:46:29;96062.88;;;0.32;78.67
18201;BME280;9226;47.858;9.594;2023-01-29T02:51:42;96063.47;;;0.40;78.21
18201;BME280;9226;47.858;9.594;2023-01-29T02:54:20;96055.59;;;0.42;77.87
18201;BME280;9226;47.858;9.594;2023-01-29T02:59:46;96061.25;;;0.28;78.70
18201;BME280;9226;47.858;9.594;2023-01-29T03:02:18;96054.63;;;0.44;77.99
18201;BME280;9226;47.858;9.594;2023-01-29T03:04:50;96053.00;;;0.42;78.10
18201;BME280;9226;47.858;9.594;2023-01-29T03:07:25;96067.69;;;0.44;78.19
18201;BME280;9226;47.858;9.594;2023-01-29T03:10:15;96061.19;;;0.58;77.49
18201;BME280;9226;47.858;9.594;2023-01-29T03:12:43;96062.88;;;0.32;78.19
18201;BME280;9226;47.858;9.594;2023-01-29T03:15:15;96063.56;;;0.37;78.04
18201;BME280;9226;47.858;9.594;2023-01-29T03:17:58;96062.97;;;0.29;78.32
18201;BME280;9226;47.858;9.594;2023-01-29T03:20:33;96065.91;;;0.46;77.87
18201;BME280;9226;47.858;9.594;2023-01-29T03:23:10;96059.84;;;0.44;77.91
18201;BME280;9226;47.858;9.594;2023-01-29T03:25:40;96071.72;;;0.26;78.19
18201;BME280;9226;47.858;9.594;2023-01-29T03:28:26;96062.97;;;0.29;78.38
18201;BME280;9226;47.858;9.594;2023-01-29T03:31:13;96058.59;;;0.29;78.53
18201;BME280;9226;47.858;9.594;2023-01-29T03:34:09;96065.00;;;0.19;77.79
18201;BME280;9226;47.858;9.594;2023-01-29T03:39:14;96070.44;;;0.11;76.08
18201;BME280;9226;47.858;9.594;2023-01-29T03:41:58;96065.69;;;-0.04;74.43
18201;BME280;9226;47.858;9.594;2023-01-29T03:44:38;96067.66;;;-0.12;73.79
18201;BME280;9226;47.858;9.594;2023-01-29T03:47:21;96053.13;;;-0.21;73.76
18201;BME280;9226;47.858;9.594;2023-01-29T03:50:30;96048.41;;;-0.08;74.08
18201;BME280;9226;47.858;9.594;2023-01-29T03:53:04;96054.25;;;0.00;74.17
18201;BME280;9226;47.858;9.594;2023-01-29T03:55:58;96056.91;;;-0.02;74.31
18201;BME280;9226;47.858;9.594;2023-01-29T04:00:58;96039.31;;;0.05;74.45
18201;BME280;9226;47.858;9.594;2023-01-29T04:03:33;96044.16;;;0.17;74.62
18201;BME280;9226;47.858;9.594;2023-01-29T04:06:15;96040.72;;;0.15;73.70
18201;BME280;9226;47.858;9.594;2023-01-29T04:08:54;96032.19;;;0.10;73.14
18201;BME280;9226;47.858;9.594;2023-01-29T04:11:22;96049.19;;;-0.05;72.69
18201;BME280;9226;47.858;9.594;2023-01-29T04:13:50;96043.88;;;-0.02;72.33
18201;BME280;9226;47.858;9.594;2023-01-29T04:16:33;96041.34;;;-0.05;71.71
18201;BME280;9226;47.858;9.594;2023-01-29T04:19:00;96028.59;;;0.14;72.24
18201;BME280;9226;47.858;9.594;2023-01-29T04:21:26;96027.72;;;0.14;72.13
18201;BME280;9226;47.858;9.594;2023-01-29T04:23:52;96034.66;;;0.15;72.13
18201;BME280;9226;47.858;9.594;2023-01-29T04:34:43;96042.72;;;0.07;73.38
18201;BME280;9226;47.858;9.594;2023-01-29T04:42:53;96044.75;;;-0.03;72.53
18201;BME280;9226;47.858;9.594;2023-01-29T04:48:29;96026.03;;;0.13;71.73
18201;BME280;9226;47.858;9.594;2023-01-29T04:54:04;96031.03;;;0.21;71.94
18201;BME280;9226;47.858;9.594;2023-01-29T04:59:16;96039.50;;;-0.01;71.76
18201;BME280;9226;47.858;9.594;2023-01-29T05:01:45;96039.88;;;-0.13;72.75
18201;BME280;9226;47.858;9.594;2023-01-29T05:04:13;96043.28;;;-0.11;72.40
18201;BME280;9226;47.858;9.594;2023-01-29T05:06:40;96043.97;;;-0.05;71.86
18201;BME280;9226;47.858;9.594;2023-01-29T05:09:08;96043.44;;;-0.17;72.46
18201;BME280;9226;47.858;9.594;2023-01-29T05:11:35;96049.22;;;-0.06;71.97
18201;BME280;9226;47.858;9.594;2023-01-29T05:14:03;96049.09;;;-0.02;71.97
18201;BME280;9226;47.858;9.594;2023-01-29T05:16:32;96051.66;;;0.00;71.76
18201;BME280;9226;47.858;9.594;2023-01-29T05:19:08;96057.31;;;-0.15;71.61
18201;BME280;9226;47.858;9.594;2023-01-29T05:21:33;96064.31;;;-0.17;71.89
18201;BME280;9226;47.858;9.594;2023-01-29T05:24:09;96069.63;;;-0.21;72.04
18201;BME280;9226;47.858;9.594;2023-01-29T05:26:35;96068.63;;;-0.16;72.21
18201;BME280;9226;47.858;9.594;2023-01-29T05:29:20;96064.63;;;0.02;72.51
18201;BME280;9226;47.858;9.594;2023-01-29T05:31:45;96070.63;;;0.05;71.61
18201;BME280;9226;47.858;9.594;2023-01-29T05:34:11;96081.78;;;0.10;71.68
18201;BME280;9226;47.858;9.594;2023-01-29T05:36:36;96074.31;;;-0.02;72.00
18201;BME280;9226;47.858;9.594;2023-01-29T05:39:02;96077.34;;;0.12;72.33
18201;BME280;9226;47.858;9.594;2023-01-29T05:41:27;96077.44;;;0.09;71.90
18201;BME280;9226;47.858;9.594;2023-01-29T05:43:53;96080.50;;;-0.05;72.19
18201;BME280;9226;47.858;9.594;2023-01-29T05:46:18;96083.72;;;0.04;72.09
18201;BME280;9226;47.858;9.594;2023-01-29T05:48:43;96092.66;;;-0.05;71.86
18201;BME280;9226;47.858;9.594;2023-01-29T05:51:09;96088.06;;;0.03;72.19
18201;BME280;9226;47.858;9.594;2023-01-29T05:53:34;96091.94;;;-0.10;71.50
18201;BME280;9226;47.858;9.594;2023-01-29T05:56:01;96090.00;;;-0.04;71.66
18201;BME280;9226;47.858;9.594;2023-01-29T05:58:26;96094.09;;;0.05;71.95
18201;BME280;9226;47.858;9.594;2023-01-29T06:00:51;96087.00;;;0.10;71.63
18201;BME280;9226;47.858;9.594;2023-01-29T06:03:17;96086.78;;;0.18;71.32
18201;BME280;9226;47.858;9.594;2023-01-29T06:05:43;96089.25;;;0.23;71.49
18201;BME280;9226;47.858;9.594;2023-01-29T06:08:08;96081.72;;;0.12;71.08
18201;BME280;9226;47.858;9.594;2023-01-29T06:10:34;96081.78;;;0.10;71.75
18201;BME280;9226;47.858;9.594;2023-01-29T06:12:59;96089.09;;;0.27;71.21
18201;BME280;9226;47.858;9.594;2023-01-29T06:15:25;96095.00;;;0.34;71.49
18201;BME280;9226;47.858;9.594;2023-01-29T06:17:53;96098.06;;;0.18;71.42
18201;BME280;9226;47.858;9.594;2023-01-29T06:20:19;96094.84;;;0.39;71.45
18201;BME280;9226;47.858;9.594;2023-01-29T06:22:44;96092.69;;;0.23;71.23
18201;BME280;9226;47.858;9.594;2023-01-29T06:25:10;96092.00;;;0.18;71.61
18201;BME280;9226;47.858;9.594;2023-01-29T06:27:35;96088.97;;;0.32;71.46
18201;BME280;9226;47.858;9.594;2023-01-29T06:30:02;96086.63;;;0.23;71.53
18201;BME280;9226;47.858;9.594;2023-01-29T06:32:28;96083.16;;;0.22;71.39
18201;BME280;9226;47.858;9.594;2023-01-29T06:34:53;96085.75;;;0.22;71.24
18201;BME280;9226;47.858;9.594;2023-01-29T06:37:18;96100.72;;;0.17;71.69
18201;BME280;9226;47.858;9.594;2023-01-29T06:39:44;96100.47;;;0.25;71.82
18201;BME280;9226;47.858;9.594;2023-01-29T06:42:09;96103.63;;;0.36;71.14
18201;BME280;9226;47.858;9.594;2023-01-29T06:44:35;96100.88;;;0.41;71.08
18201;BME280;9226;47.858;9.594;2023-01-29T06:47:01;96107.94;;;0.37;71.41
18201;BME280;9226;47.858;9.594;2023-01-29T06:49:26;96101.94;;;0.05;71.64
18201;BME280;9226;47.858;9.594;2023-01-29T06:51:51;96094.66;;;0.16;71.83
18201;BME280;9226;47.858;9.594;2023-01-29T06:54:17;96096.13;;;-0.05;72.28
18201;BME280;9226;47.858;9.594;2023-01-29T06:56:42;96095.66;;;0.11;72.25
18201;BME280;9226;47.858;9.594;2023-01-29T06:59:07;96098.31;;;0.09;72.38
18201;BME280;9226;47.858;9.594;2023-01-29T07:01:33;96092.53;;;-0.01;72.17
18201;BME280;9226;47.858;9.594;2023-01-29T07:03:58;96087.63;;;0.18;72.14
18201;BME280;9226;47.858;9.594;2023-01-29T07:06:27;96088.53;;;0.17;71.95
18201;BME280;9226;47.858;9.594;2023-01-29T07:08:53;96084.72;;;0.28;72.27
18201;BME280;9226;47.858;9.594;2023-01-29T07:11:18;96081.50;;;0.48;71.58
18201;BME280;9226;47.858;9.594;2023-01-29T07:13:44;96073.59;;;0.23;71.98
18201;BME280;9226;47.858;9.594;2023-01-29T07:16:09;96073.22;;;0.35;71.94
18201;BME280;9226;47.858;9.594;2023-01-29T07:18:35;96076.63;;;0.37;71.94
18201;BME280;9226;47.858;9.594;2023-01-29T07:21:05;96076.53;;;0.40;71.78
18201;BME280;9226;47.858;9.594;2023-01-29T07:23:32;96082.13;;;0.28;71.86
18201;BME280;9226;47.858;9.594;2023-01-29T07:26:03;96089.94;;;0.28;71.93
18201;BME280;9226;47.858;9.594;2023-01-29T07:28:29;96080.50;;;0.24;72.15
18201;BME280;9226;47.858;9.594;2023-01-29T07:30:58;96082.59;;;0.41;71.95
18201;BME280;9226;47.858;9.594;2023-01-29T07:33:23;96072.78;;;0.21;71.82
18201;BME280;9226;47.858;9.594;2023-01-29T07:35:49;96082.22;;;0.25;71.87
18201;BME280;9226;47.858;9.594;2023-01-29T07:38:14;96080.03;;;0.39;71.55
18201;BME280;9226;47.858;9.594;2023-01-29T07:40:40;96081.47;;;0.49;71.05
18201;BME280;9226;47.858;9.594;2023-01-29T07:43:06;96081.09;;;0.62;70.96
18201;BME280;9226;47.858;9.594;2023-01-29T07:45:36;96092.00;;;0.46;70.08
18201;BME280;9226;47.858;9.594;2023-01-29T07:48:02;96095.59;;;0.42;70.24
18201;BME280;9226;47.858;9.594;2023-01-29T07:50:32;96095.59;;;0.42;70.33
18201;BME280;9226;47.858;9.594;2023-01-29T07:52:58;96094.34;;;0.56;70.45
18201;BME280;9226;47.858;9.594;2023-01-29T07:55:24;96101.56;;;0.74;70.59
18201;BME280;9226;47.858;9.594;2023-01-29T07:58:00;96089.53;;;0.70;70.25
18201;BME280;9226;47.858;9.594;2023-01-29T08:00:27;96085.44;;;0.61;70.83
18201;BME280;9226;47.858;9.594;2023-01-29T08:02:53;96085.59;;;0.83;70.57
18201;BME280;9226;47.858;9.594;2023-01-29T08:05:19;96085.22;;;0.96;70.47
18201;BME280;9226;47.858;9.594;2023-01-29T08:07:44;96083.69;;;0.88;69.47
18201;BME280;9226;47.858;9.594;2023-01-29T08:10:10;96089.09;;;0.84;68.90
18201;BME280;9226;47.858;9.594;2023-01-29T08:12:36;96094.91;;;0.92;69.01
18201;BME280;9226;47.858;9.594;2023-01-29T08:15:02;96100.72;;;1.00;69.11
18201;BME280;9226;47.858;9.594;2023-01-29T08:17:27;96099.75;;;1.04;68.65
18201;BME280;9226;47.858;9.594;2023-01-29T08:19:53;96090.53;;;1.19;69.00
18201;BME280;9226;47.858;9.594;2023-01-29T08:22:18;96082.56;;;1.22;68.88
18201;BME280;9226;47.858;9.594;2023-01-29T08:24:43;96089.28;;;1.30;68.55
18201;BME280;9226;47.858;9.594;2023-01-29T08:27:09;96080.53;;;1.31;68.23
18201;BME280;9226;47.858;9.594;2023-01-29T08:29:34;96085.81;;;1.04;67.43
18201;BME280;9226;47.858;9.594;2023-01-29T08:32:00;96085.97;;;1.24;67.77
18201;BME280;9226;47.858;9.594;2023-01-29T08:34:25;96084.81;;;1.33;67.51
18201;BME280;9226;47.858;9.594;2023-01-29T08:36:51;96088.59;;;1.50;67.41
18201;BME280;9226;47.858;9.594;2023-01-29T08:39:17;96090.91;;;1.59;67.58
18201;BME280;9226;47.858;9.594;2023-01-29T08:41:43;96087.81;;;1.48;66.36
18201;BME280;9226;47.858;9.594;2023-01-29T08:44:08;96097.50;;;1.69;67.13
18201;BME280;9226;47.858;9.594;2023-01-29T08:46:34;96097.44;;;1.71;66.39
18201;BME280;9226;47.858;9.594;2023-01-29T08:48:59;96099.22;;;1.70;66.04
18201;BME280;9226;47.858;9.594;2023-01-29T08:51:25;96110.31;;;1.77;66.09
18201;BME280;9226;47.858;9.594;2023-01-29T08:53:51;96108.72;;;1.73;65.82
18201;BME280;9226;47.858;9.594;2023-01-29T08:56:16;96106.56;;;1.84;65.64
18201;BME280;9226;47.858;9.594;2023-01-29T08:58:42;96113.63;;;1.82;65.75
18201;BME280;9226;47.858;9.594;2023-01-29T09:01:10;96120.09;;;1.72;63.90
18201;BME280;9226;47.858;9.594;2023-01-29T09:03:36;96124.00;;;1.85;65.03
18201;BME280;9226;47.858;9.594;2023-01-29T09:06:02;96117.66;;;1.91;65.01
18201;BME280;9226;47.858;9.594;2023-01-29T09:08:28;96127.00;;;1.98;64.71
18201;BME280;9226;47.858;9.594;2023-01-29T09:10:53;96128.75;;;1.97;64.68
18201;BME280;9226;47.858;9.594;2023-01-29T09:13:19;96127.66;;;1.79;63.50
18201;BME280;9226;47.858;9.594;2023-01-29T09:15:44;96135.13;;;1.90;63.57
18201;BME280;9226;47.858;9.594;2023-01-29T09:18:10;96134.09;;;1.94;63.35
18201;BME280;9226;47.858;9.594;2023-01-29T09:20:35;96128.03;;;1.69;63.33
18201;BME280;9226;47.858;9.594;2023-01-29T09:23:07;96125.56;;;1.89;63.70
18201;BME280;9226;47.858;9.594;2023-01-29T09:25:33;96128.31;;;2.10;64.30
18201;BME280;9226;47.858;9.594;2023-01-29T09:27:58;96129.34;;;2.06;63.91
18201;BME280;9226;47.858;9.594;2023-01-29T09:30:24;96125.59;;;2.13;63.71
18201;BME280;9226;47.858;9.594;2023-01-29T09:32:49;96133.44;;;2.13;63.82
18201;BME280;9226;47.858;9.594;2023-01-29T09:35:14;96133.72;;;2.29;64.29
18201;BME280;9226;47.858;9.594;2023-01-29T09:37:40;96138.56;;;2.40;64.08
18201;BME280;9226;47.858;9.594;2023-01-29T09:40:06;96130.41;;;2.47;64.16
18201;BME280;9226;47.858;9.594;2023-01-29T09:42:41;96120.19;;;2.63;63.82
18201;BME280;9226;47.858;9.594;2023-01-29T09:45:13;96127.19;;;2.41;61.94
18201;BME280;9226;47.858;9.594;2023-01-29T09:47:40;96132.38;;;2.42;62.25
18201;BME280;9226;47.858;9.594;2023-01-29T09:55:31;96144.41;;;2.23;63.12
18201;BME280;9226;47.858;9.594;2023-01-29T09:58:32;96151.31;;;2.25;63.03
18201;BME280;9226;47.858;9.594;2023-01-29T10:04:19;96149.72;;;2.45;63.19
18201;BME280;9226;47.858;9.594;2023-01-29T10:15:23;96168.44;;;2.34;63.62
18201;BME280;9226;47.858;9.594;2023-01-29T10:25:47;96161.56;;;1.83;64.59
18201;BME280;9226;47.858;9.594;2023-01-29T10:28:36;96159.22;;;1.75;65.08
18201;BME280;9226;47.858;9.594;2023-01-29T10:31:12;96154.59;;;2.07;65.18
18201;BME280;9226;47.858;9.594;2023-01-29T10:33:48;96151.19;;;2.05;65.02
18201;BME280;9226;47.858;9.594;2023-01-29T10:36:21;96150.19;;;2.09;64.95
18201;BME280;9226;47.858;9.594;2023-01-29T10:38:48;96144.31;;;2.26;65.05
18201;BME280;9226;47.858;9.594;2023-01-29T11:00:35;96142.56;;;2.50;63.83
18201;BME280;9226;47.858;9.594;2023-01-29T11:03:30;96131.38;;;2.21;63.06
18201;BME280;9226;47.858;9.594;2023-01-29T11:08:53;96131.94;;;2.53;63.56
18201;BME280;9226;47.858;9.594;2023-01-29T11:11:25;96124.19;;;2.74;63.71
18201;BME280;9226;47.858;9.594;2023-01-29T11:14:03;96118.78;;;2.54;62.18
18201;BME280;9226;47.858;9.594;2023-01-29T11:16:39;96114.59;;;2.72;62.62
18201;BME280;9226;47.858;9.594;2023-01-29T11:19:05;96106.13;;;2.88;62.61
18201;BME280;9226;47.858;9.594;2023-01-29T11:21:30;96108.31;;;2.99;62.96
18201;BME280;9226;47.858;9.594;2023-01-29T11:24:10;96106.84;;;3.14;62.62
18201;BME280;9226;47.858;9.594;2023-01-29T11:26:38;96099.88;;;3.13;62.20
18201;BME280;9226;47.858;9.594;2023-01-29T11:31:52;96102.91;;;2.35;60.87
18201;BME280;9226;47.858;9.594;2023-01-29T11:34:21;96098.81;;;2.52;61.02
18201;BME280;9226;47.858;9.594;2023-01-29T11:36:56;96091.69;;;2.56;61.29
18201;BME280;9226;47.858;9.594;2023-01-29T11:39:23;96090.91;;;2.76;61.95
18201;BME280;9226;47.858;9.594;2023-01-29T11:41:59;96089.84;;;2.80;61.55
18201;BME280;9226;47.858;9.594;2023-01-29T11:44:35;96083.22;;;2.49;61.26
18201;BME280;9226;47.858;9.594;2023-01-29T11:47:27;96080.19;;;2.60;61.89
18201;BME280;9226;47.858;9.594;2023-01-29T11:49:56;96082.84;;;2.58;61.88
18201;BME280;9226;47.858;9.594;2023-01-29T11:52:24;96078.81;;;2.71;61.95
18201;BME280;9226;47.858;9.594;2023-01-29T11:54:58;96082.22;;;2.96;61.32
18201;BME280;9226;47.858;9.594;2023-01-29T11:57:33;96072.59;;;2.96;60.31
18201;BME280;9226;47.858;9.594;2023-01-29T12:02:43;96079.88;;;2.89;59.11
18201;BME280;9226;47.858;9.594;2023-01-29T12:05:16;96076.97;;;2.96;60.06
18201;BME280;9226;47.858;9.594;2023-01-29T12:07:45;96066.19;;;2.81;59.96
18201;BME280;9226;47.858;9.594;2023-01-29T12:10:34;96070.09;;;2.93;60.35
18201;BME280;9226;47.858;9.594;2023-01-29T12:15:35;96075.19;;;3.18;60.48
18201;BME280;9226;47.858;9.594;2023-01-29T12:18:02;96078.41;;;3.25;60.33
18201;BME280;9226;47.858;9.594;2023-01-29T12:20:35;96075.91;;;3.42;60.24
18201;BME280;9226;47.858;9.594;2023-01-29T12:23:19;96076.69;;;3.44;59.92
18201;BME280;9226;47.858;9.594;2023-01-29T12:31:10;96070.66;;;3.42;59.10
18201;BME280;9226;47.858;9.594;2023-01-29T12:36:59;96070.31;;;3.09;59.12
18201;BME280;9226;47.858;9.594;2023-01-29T12:39:28;96059.91;;;3.28;59.96
18201;BME280;9226;47.858;9.594;2023-01-29T12:42:02;96054.56;;;2.88;59.41
18201;BME280;9226;47.858;9.594;2023-01-29T12:44:37;96053.22;;;3.21;59.94
18201;BME280;9226;47.858;9.594;2023-01-29T12:50:01;96040.66;;;3.29;59.49
18201;BME280;9226;47.858;9.594;2023-01-29T12:52:39;96028.19;;;3.34;59.13
18201;BME280;9226;47.858;9.594;2023-01-29T12:55:15;96024.28;;;3.22;59.09
18201;BME280;9226;47.858;9.594;2023-01-29T12:58:02;96013.03;;;3.20;58.96
18201;BME280;9226;47.858;9.594;2023-01-29T13:00:33;96011.53;;;3.35;59.91
18201;BME280;9226;47.858;9.594;2023-01-29T13:03:20;96013.34;;;3.33;59.38
18201;BME280;9226;47.858;9.594;2023-01-29T13:05:54;96005.72;;;3.48;60.12
18201;BME280;9226;47.858;9.594;2023-01-29T13:08:28;95997.72;;;3.51;59.80
18201;BME280;9226;47.858;9.594;2023-01-29T13:10:55;95988.59;;;3.59;59.78
18201;BME280;9226;47.858;9.594;2023-01-29T13:14:30;95992.78;;;3.63;58.94
18201;BME280;9226;47.858;9.594;2023-01-29T13:16:48;96001.09;;;3.73;59.10
18201;BME280;9226;47.858;9.594;2023-01-29T13:19:32;95997.50;;;3.55;58.67
18201;BME280;9226;47.858;9.594;2023-01-29T13:22:01;95994.81;;;3.57;59.12
18201;BME280;9226;47.858;9.594;2023-01-29T13:24:39;95992.69;;;3.65;58.77
18201;BME280;9226;47.858;9.594;2023-01-29T13:27:05;95988.91;;;3.72;59.68
18201;BME280;9226;47.858;9.594;2023-01-29T13:29:32;95981.09;;;3.90;59.67
18201;BME280;9226;47.858;9.594;2023-01-29T13:32:03;95986.91;;;3.96;58.71
18201;BME280;9226;47.858;9.594;2023-01-29T13:37:20;95986.91;;;3.96;57.47
18201;BME280;9226;47.858;9.594;2023-01-29T13:39:49;95985.22;;;3.95;57.66
18201;BME280;9226;47.858;9.594;2023-01-29T13:42:21;95986.84;;;3.98;57.54
18201;BME280;9226;47.858;9.594;2023-01-29T13:44:49;95989.66;;;3.93;57.81
18201;BME280;9226;47.858;9.594;2023-01-29T13:47:27;95977.84;;;4.04;57.71
18201;BME280;9226;47.858;9.594;2023-01-29T13:49:58;95977.34;;;4.14;58.45
18201;BME280;9226;47.858;9.594;2023-01-29T13:52:35;95973.97;;;4.30;58.38
18201;BME280;9226;47.858;9.594;2023-01-29T13:55:07;95970.16;;;4.18;57.52
18201;BME280;9226;47.858;9.594;2023-01-29T14:00:01;95975.22;;;4.40;57.91
18201;BME280;9226;47.858;9.594;2023-01-29T14:02:28;95974.69;;;4.33;57.65
18201;BME280;9226;47.858;9.594;2023-01-29T14:07:53;95963.22;;;4.34;57.07
18201;BME280;9226;47.858;9.594;2023-01-29T14:10:20;95965.03;;;4.34;57.22
18201;BME280;9226;47.858;9.594;2023-01-29T14:12:53;95952.09;;;4.29;56.78
18201;BME280;9226;47.858;9.594;2023-01-29T14:15:25;95957.13;;;4.34;57.19
18201;BME280;9226;47.858;9.594;2023-01-29T14:18:11;95951.03;;;4.33;57.23
18201;BME280;9226;47.858;9.594;2023-01-29T14:20:39;95936.22;;;4.13;56.17
18201;BME280;9226;47.858;9.594;2023-01-29T14:26:39;95928.88;;;3.46;56.53
18201;BME280;9226;47.858;9.594;2023-01-29T14:34:43;95917.13;;;3.73;57.88
18201;BME280;9226;47.858;9.594;2023-01-29T14:48:01;95916.81;;;3.79;57.72
18201;BME280;9226;47.858;9.594;2023-01-29T15:01:00;95940.22;;;3.65;58.12
18201;BME280;9226;47.858;9.594;2023-01-29T15:05:57;95941.88;;;3.68;58.56
18201;BME280;9226;47.858;9.594;2023-01-29T15:08:31;95945.19;;;3.71;58.53
18201;BME280;9226;47.858;9.594;2023-01-29T15:11:05;95948.63;;;3.73;58.64
18201;BME280;9226;47.858;9.594;2023-01-29T15:13:59;95946.06;;;3.72;58.60
18201;BME280;9226;47.858;9.594;2023-01-29T15:19:32;95952.16;;;3.72;58.32
18201;BME280;9226;47.858;9.594;2023-01-29T15:22:11;95942.78;;;3.67;58.61
18201;BME280;9226;47.858;9.594;2023-01-29T15:24:38;95954.63;;;3.56;58.76
18201;BME280;9226;47.858;9.594;2023-01-29T15:27:18;95952.97;;;3.54;59.00
18201;BME280;9226;47.858;9.594;2023-01-29T15:30:01;95951.94;;;3.58;59.00
18201;BME280;9226;47.858;9.594;2023-01-29T15:34:56;95960.06;;;3.33;58.34
18201;BME280;9226;47.858;9.594;2023-01-29T15:37:31;95962.47;;;3.37;59.03
18201;BME280;9226;47.858;9.594;2023-01-29T15:39:58;95964.44;;;3.32;59.26
18201;BME280;9226;47.858;9.594;2023-01-29T15:42:26;95963.00;;;3.25;59.48
18201;BME280;9226;47.858;9.594;2023-01-29T15:44:52;95976.91;;;3.27;59.40
18201;BME280;9226;47.858;9.594;2023-01-29T15:47:27;95979.72;;;3.22;59.74
18201;BME280;9226;47.858;9.594;2023-01-29T15:49:55;95974.41;;;3.24;59.56
18201;BME280;9226;47.858;9.594;2023-01-29T15:52:39;95977.16;;;3.21;59.37
18201;BME280;9226;47.858;9.594;2023-01-29T15:55:05;95974.66;;;3.18;59.64
18201;BME280;9226;47.858;9.594;2023-01-29T15:57:36;95974.72;;;3.16;59.74
18201;BME280;9226;47.858;9.594;2023-01-29T16:00:07;95974.41;;;3.03;59.87
18201;BME280;9226;47.858;9.594;2023-01-29T16:04:58;95981.56;;;3.00;59.94
18201;BME280;9226;47.858;9.594;2023-01-29T16:07:24;95969.59;;;2.94;59.92
18201;BME280;9226;47.858;9.594;2023-01-29T16:09:51;95978.50;;;2.90;59.82
18201;BME280;9226;47.858;9.594;2023-01-29T16:12:16;95974.41;;;2.83;60.03
18201;BME280;9226;47.858;9.594;2023-01-29T16:14:43;95980.84;;;2.76;60.18
18201;BME280;9226;47.858;9.594;2023-01-29T16:17:19;95992.59;;;2.65;60.40
18201;BME280;9226;47.858;9.594;2023-01-29T16:19:54;95993.19;;;2.51;60.46
18201;BME280;9226;47.858;9.594;2023-01-29T16:22:20;95999.16;;;2.55;60.46
18201;BME280;9226;47.858;9.594;2023-01-29T16:24:46;96004.09;;;2.41;60.84